Time;durP1;ratioP1;P1;durP2;ratioP2;P2;SDS_P1;SDS_P2;PMS_P1;PMS_P2;Temp;Humidity;BMP_temperature;BMP_pressure;BME280_temperature;BME280_humidity;BME280_pressure;Samples;Min_cycle;Max_cycle;Signal;HPM_P1;HPM_P2
2023/03/16 00:02:55;;;;;;;34.23;13.93;;;;;;;1.27;100.00;101027.37;5087556;56;1140972;-66
2023/03/16 00:08:00;;;;;;;36.37;12.73;;;;;;;1.04;100.00;101037.66;5067739;56;1140773;-69
2023/03/16 00:13:06;;;;;;;34.77;13.23;;;;;;;0.90;100.00;101035.92;5076701;56;1141028;-70
2023/03/16 00:18:13;;;;;;;30.92;12.68;;;;;;;0.91;100.00;101043.69;4947383;57;1140870;-69
2023/03/16 00:23:27;;;;;;;34.67;13.30;;;;;;;0.91;100.00;101047.59;5058800;56;1140830;-68
2023/03/16 00:28:34;;;;;;;33.10;12.53;;;;;;;0.86;100.00;101053.38;5066619;56;1140841;-69
2023/03/16 00:33:41;;;;;;;29.37;11.67;;;;;;;0.92;100.00;101054.48;5033010;57;1140780;-66
2023/03/16 00:38:49;;;;;;;29.35;12.58;;;;;;;0.98;100.00;101047.80;5066552;56;1140940;-67
2023/03/16 00:43:54;;;;;;;28.47;11.63;;;;;;;1.01;100.00;101041.66;5066895;56;1141051;-66
2023/03/16 00:49:01;;;;;;;33.00;13.03;;;;;;;1.05;100.00;101046.73;5039308;56;1140789;-69
2023/03/16 00:54:07;;;;;;;40.40;13.57;;;;;;;1.09;100.00;101051.38;5003439;57;1140740;-69
2023/03/16 00:59:14;;;;;;;39.77;13.97;;;;;;;1.11;100.00;101057.84;5069351;56;1140754;-67
2023/03/16 01:04:20;;;;;;;41.37;14.50;;;;;;;1.12;100.00;101056.95;5035495;56;1140913;-67
2023/03/16 01:09:27;;;;;;;36.07;13.97;;;;;;;1.09;100.00;101063.09;5066013;55;1140995;-72
2023/03/16 01:14:35;;;;;;;32.83;11.37;;;;;;;1.05;100.00;101068.02;5017732;56;1140975;-66
2023/03/16 01:19:43;;;;;;;25.83;11.00;;;;;;;0.92;100.00;101068.80;5087114;56;1140985;-67
2023/03/16 01:24:49;;;;;;;28.13;10.17;;;;;;;0.84;100.00;101067.33;5116940;56;1141042;-66
2023/03/16 01:29:55;;;;;;;17.20;7.00;;;;;;;0.61;100.00;101070.13;5096325;56;1140857;-67
2023/03/16 01:35:01;;;;;;;25.17;9.57;;;;;;;0.44;100.00;101071.06;5096663;56;1138667;-67
2023/03/16 01:40:11;;;;;;;20.50;7.80;;;;;;;0.29;100.00;101078.84;5116526;56;1138934;-70
2023/03/16 01:45:54;;;;;;;27.43;9.60;;;;;;;0.27;100.00;101076.72;5096727;56;1138750;-67
2023/03/16 01:51:02;;;;;;;29.63;11.47;;;;;;;0.39;100.00;101081.17;4975527;56;1138798;-72
2023/03/16 01:56:12;;;;;;;41.27;14.47;;;;;;;0.50;100.00;101085.64;4901166;57;1140848;-70
2023/03/16 02:01:20;;;;;;;39.97;13.37;;;;;;;0.58;100.00;101091.05;4938708;57;1141087;-69
2023/03/16 02:06:27;;;;;;;36.83;11.63;;;;;;;0.64;100.00;101092.17;4983986;57;1140891;-68
2023/03/16 02:11:35;;;;;;;26.50;9.00;;;;;;;0.60;100.00;101091.88;4918818;57;1140799;-69
2023/03/16 02:16:46;;;;;;;28.60;8.60;;;;;;;0.45;100.00;101094.89;4873041;58;1138837;-66
2023/03/16 02:22:05;;;;;;;18.87;7.30;;;;;;;0.38;100.00;101089.88;4970836;57;1138954;-66
2023/03/16 02:27:37;;;;;;;23.73;8.23;;;;;;;0.32;100.00;101103.89;5008791;57;1138871;-71
2023/03/16 02:32:45;;;;;;;48.00;11.47;;;;;;;0.22;100.00;101099.38;5001499;57;1138856;-67
2023/03/16 02:37:52;;;;;;;150.17;38.73;;;;;;;0.19;100.00;101105.09;4948149;57;1141285;-74
2023/03/16 02:43:17;;;;;;;201.98;47.25;;;;;;;0.16;100.00;101109.08;4989223;56;1142942;-68
2023/03/16 02:48:45;;;;;;;211.70;46.08;;;;;;;0.13;100.00;101114.38;5003534;56;1142890;-72
2023/03/16 02:53:51;;;;;;;94.87;40.10;;;;;;;0.05;100.00;101116.30;5036905;55;1142839;-72
2023/03/16 02:58:57;;;;;;;100.27;40.80;;;;;;;0.03;100.00;101118.08;5062726;56;1140941;-75
2023/03/16 03:04:06;;;;;;;20.23;6.93;;;;;;;-0.01;100.00;101106.48;5085367;56;1143097;-71
2023/03/16 03:09:12;;;;;;;17.47;5.73;;;;;;;0.01;100.00;101109.02;5051406;56;1141100;-70
2023/03/16 03:14:19;;;;;;;13.17;5.60;;;;;;;0.06;100.00;101111.51;5051414;56;1139014;-65
2023/03/16 03:19:25;;;;;;;15.35;6.08;;;;;;;0.07;100.00;101115.82;5040794;56;1138932;-69
2023/03/16 03:24:33;;;;;;;16.50;5.43;;;;;;;0.10;100.00;101111.84;5080593;56;1138831;-69
2023/03/16 03:29:39;;;;;;;19.60;6.00;;;;;;;0.11;100.00;101118.77;5092951;56;1138743;-72
2023/03/16 03:34:46;;;;;;;29.67;7.80;;;;;;;0.10;100.00;101125.70;5112710;56;1138946;-73
2023/03/16 03:39:53;;;;;;;18.53;4.83;;;;;;;0.10;100.00;101124.86;5092528;56;1138922;-73
2023/03/16 03:45:00;;;;;;;11.03;4.97;;;;;;;0.08;100.00;101127.48;5092167;56;1138811;-70
2023/03/16 03:50:10;;;;;;;16.63;5.27;;;;;;;0.11;100.00;101133.06;5112554;56;1138870;-69
2023/03/16 03:55:17;;;;;;;17.50;5.40;;;;;;;0.08;100.00;101137.03;5091399;56;1138815;-75
2023/03/16 04:00:24;;;;;;;12.70;5.23;;;;;;;0.09;100.00;101130.50;5097086;55;1138789;-69
2023/03/16 04:05:30;;;;;;;35.63;12.97;;;;;;;0.14;100.00;101128.65;5117575;56;1138805;-72
2023/03/16 04:10:36;;;;;;;42.37;14.30;;;;;;;0.11;100.00;101136.97;5056652;56;1182280;-67
2023/03/16 04:15:45;;;;;;;23.53;7.53;;;;;;;0.05;100.00;101135.36;5065746;56;1230324;-65
2023/03/16 04:20:54;;;;;;;14.63;5.03;;;;;;;0.02;100.00;101139.33;5115112;55;1138784;-72
2023/03/16 04:26:02;;;;;;;19.23;5.47;;;;;;;-0.01;100.00;101141.59;5097693;56;1138824;-69
2023/03/16 04:31:10;;;;;;;47.10;20.37;;;;;;;-0.04;100.00;101141.66;5095178;55;1140862;-69
2023/03/16 04:36:18;;;;;;;41.67;13.13;;;;;;;-0.07;100.00;101146.92;5109299;56;1142990;-68
2023/03/16 04:41:24;;;;;;;32.40;8.57;;;;;;;-0.09;100.00;101151.30;5097342;55;1143060;-70
2023/03/16 04:46:31;;;;;;;31.83;7.50;;;;;;;-0.17;100.00;101148.48;5097030;56;1141042;-70
2023/03/16 04:51:41;;;;;;;16.07;4.57;;;;;;;-0.20;100.00;101155.05;5116227;56;1140966;-67
2023/03/16 04:56:48;;;;;;;14.10;3.87;;;;;;;-0.27;100.00;101153.02;5027147;55;1140697;-70
2023/03/16 05:02:10;;;;;;;18.07;3.37;;;;;;;-0.29;100.00;101159.99;5082055;55;1246008;-67
2023/03/16 05:07:18;;;;;;;15.88;2.60;;;;;;;-0.31;100.00;101163.09;5132386;55;1141159;-69
2023/03/16 05:12:26;;;;;;;9.50;4.13;;;;;;;-0.34;100.00;101165.77;5117463;56;1141040;-70
2023/03/16 05:17:33;;;;;;;9.23;4.45;;;;;;;-0.33;100.00;101166.17;5097349;56;1138916;-70
2023/03/16 05:22:47;;;;;;;15.67;5.03;;;;;;;-0.35;100.00;101160.15;5097922;56;1138728;-70
2023/03/16 05:27:58;;;;;;;24.83;8.27;;;;;;;-0.33;100.00;101162.27;5117235;56;1140838;-70
2023/03/16 05:33:06;;;;;;;19.77;7.57;;;;;;;-0.35;100.00;101173.14;5094788;56;1243081;-71
2023/03/16 05:38:12;;;;;;;15.73;6.77;;;;;;;-0.37;100.00;101171.02;5097834;55;1140757;-73
2023/03/16 05:43:22;;;;;;;19.77;8.23;;;;;;;-0.41;100.00;101166.33;5117035;56;1140951;-66
2023/03/16 05:48:29;;;;;;;19.20;7.50;;;;;;;-0.37;100.00;101167.98;5154600;55;1141491;-70
2023/03/16 05:53:36;;;;;;;39.58;18.07;;;;;;;-0.30;100.00;101170.42;5023239;55;1141494;-66
2023/03/16 05:58:44;;;;;;;15.07;5.83;;;;;;;-0.23;100.00;101171.56;5012145;56;1143768;-69
2023/03/16 06:03:53;;;;;;;12.47;6.73;;;;;;;-0.15;100.00;101167.02;5059947;56;1140776;-68
2023/03/16 06:09:01;;;;;;;15.43;5.40;;;;;;;-0.05;100.00;101171.59;5016229;56;1141578;-65
2023/03/16 06:14:07;;;;;;;9.77;3.53;;;;;;;0.06;100.00;101182.58;5026541;56;1141574;-66
2023/03/16 06:19:14;;;;;;;10.47;3.53;;;;;;;0.22;100.00;101177.86;5042427;56;1136805;-66
2023/03/16 06:24:21;;;;;;;16.87;6.03;;;;;;;0.37;100.00;101181.38;5094897;56;1254929;-66
2023/03/16 06:29:27;;;;;;;11.50;4.17;;;;;;;0.46;100.00;101187.64;5096085;56;1254706;-65
2023/03/16 06:34:33;;;;;;;13.45;4.08;;;;;;;0.59;100.00;101185.61;5125860;56;1138710;-66
2023/03/16 06:39:40;;;;;;;15.50;3.70;;;;;;;0.56;100.00;101188.28;5094490;56;1250913;-67
2023/03/16 06:44:46;;;;;;;11.48;3.15;;;;;;;0.63;100.00;101189.81;5094818;56;1254266;-65
2023/03/16 06:49:54;;;;;;;10.40;3.17;;;;;;;0.78;100.00;101184.20;5042445;56;1138982;-69
2023/03/16 06:55:01;;;;;;;6.40;1.80;;;;;;;0.92;100.00;101191.64;4891042;58;1138866;-68
2023/03/16 07:00:12;;;;;;;10.83;3.00;;;;;;;0.97;100.00;101199.75;4904933;58;1136945;-69
2023/03/16 07:05:19;;;;;;;10.43;2.27;;;;;;;1.04;100.00;101207.81;5067004;56;1138768;-69
2023/03/16 07:10:26;;;;;;;17.17;3.23;;;;;;;1.16;100.00;101213.13;5085030;56;1248142;-66
2023/03/16 07:15:34;;;;;;;12.18;2.74;;;;;;;1.33;100.00;101221.78;5015311;56;1166083;-69
2023/03/16 07:20:42;;;;;;;11.97;3.33;;;;;;;1.49;100.00;101223.50;5017222;57;1138716;-69
2023/03/16 07:25:54;;;;;;;13.60;3.40;;;;;;;1.65;100.00;101233.44;5087053;56;1138881;-69
2023/03/16 07:31:01;;;;;;;8.27;1.77;;;;;;;1.84;100.00;101238.08;5043981;56;1138787;-68
2023/03/16 07:36:11;;;;;;;22.17;8.87;;;;;;;1.94;100.00;101244.75;5067053;56;1136904;-66
2023/03/16 07:41:20;;;;;;;10.83;3.80;;;;;;;2.19;100.00;101244.38;5086933;56;1148553;-65
2023/03/16 07:46:31;;;;;;;13.00;2.37;;;;;;;2.40;100.00;101250.69;5086650;57;1138728;-65
2023/03/16 07:51:39;;;;;;;7.07;2.20;;;;;;;2.35;100.00;101260.41;4944288;57;1138781;-70
2023/03/16 07:56:46;;;;;;;14.77;4.17;;;;;;;2.25;100.00;101257.70;4933971;57;1242845;-68
2023/03/16 08:02:03;;;;;;;17.13;5.43;;;;;;;2.23;100.00;101266.02;4997710;57;1138862;-66
2023/03/16 08:07:15;;;;;;;5.73;2.70;;;;;;;2.19;100.00;101272.23;5013903;55;1138759;-68
2023/03/16 08:12:36;;;;;;;22.70;7.90;;;;;;;2.12;100.00;101267.67;4916925;56;1136651;-69
2023/03/16 08:17:45;;;;;;;28.50;14.50;;;;;;;2.11;100.00;101279.00;5033293;57;1138723;-70
2023/03/16 08:22:53;;;;;;;11.53;2.70;;;;;;;2.08;100.00;101283.01;5036647;57;1140643;-70
2023/03/16 08:28:03;;;;;;;4.97;2.27;;;;;;;2.15;100.00;101287.56;5067591;56;1138650;-70
2023/03/16 08:33:10;;;;;;;17.03;7.60;;;;;;;2.10;100.00;101283.81;5044608;57;1136795;-71
2023/03/16 08:38:19;;;;;;;6.23;3.23;;;;;;;2.16;100.00;101290.58;5071203;56;1138802;-69
2023/03/16 08:43:29;;;;;;;3.60;1.67;;;;;;;2.33;100.00;101293.08;5117539;56;1136684;-71
2023/03/16 08:48:39;;;;;;;10.70;2.95;;;;;;;2.56;100.00;101291.06;5114688;55;1136673;-69
2023/03/16 08:53:46;;;;;;;5.37;1.93;;;;;;;2.83;100.00;101307.13;5097573;56;1139125;-72
2023/03/16 08:58:52;;;;;;;16.40;6.77;;;;;;;2.89;100.00;101310.00;5115707;56;1136588;-66
2023/03/16 09:03:59;;;;;;;10.10;2.10;;;;;;;2.92;100.00;101311.19;4999570;56;1138688;-68
2023/03/16 09:09:11;;;;;;;13.90;1.70;;;;;;;2.92;100.00;101306.41;4985568;57;1138819;-71
2023/03/16 09:14:18;;;;;;;6.80;2.00;;;;;;;3.12;100.00;101306.15;4975276;56;1138704;-71
2023/03/16 09:19:30;;;;;;;8.63;1.50;;;;;;;3.45;100.00;101302.81;4915895;57;1136698;-71
2023/03/16 09:24:45;;;;;;;7.43;2.30;;;;;;;3.74;100.00;101302.20;4985053;57;1136769;-71
2023/03/16 09:29:55;;;;;;;6.73;1.43;;;;;;;3.73;100.00;101298.73;4919472;58;1136641;-69
2023/03/16 09:35:01;;;;;;;3.13;1.20;;;;;;;3.58;100.00;101316.30;4922273;57;1136646;-72
2023/03/16 09:40:23;;;;;;;13.13;6.43;;;;;;;3.55;100.00;101313.78;5067557;56;1136602;-72
2023/03/16 09:45:55;;;;;;;3.37;0.90;;;;;;;3.55;100.00;101326.86;5067759;56;1138842;-70
2023/03/16 09:51:09;;;;;;;11.87;1.50;;;;;;;3.52;100.00;101333.05;5087070;56;1136923;-68
2023/03/16 09:56:29;;;;;;;3.10;1.10;;;;;;;3.72;100.00;101327.11;4968875;56;1139237;-68
2023/03/16 10:02:27;;;;;;;7.53;2.90;;;;;;;3.87;100.00;101326.55;4945627;57;1136837;-75
2023/03/16 10:08:05;;;;;;;5.03;2.17;;;;;;;4.01;100.00;101333.03;4941177;58;1137160;-77
2023/03/16 10:13:28;;;;;;;4.90;2.10;;;;;;;4.09;100.00;101339.70;5000717;57;1136937;-80
2023/03/16 10:18:41;;;;;;;6.50;1.73;;;;;;;4.01;100.00;101340.42;4973669;57;1136859;-75
2023/03/16 10:23:52;;;;;;;9.77;2.50;;;;;;;3.92;100.00;101349.94;5066455;56;1136977;-79
2023/03/16 10:29:03;;;;;;;8.33;1.93;;;;;;;3.97;100.00;101355.02;5137662;56;1136655;-75
2023/03/16 10:34:11;;;;;;;16.07;6.70;;;;;;;4.09;100.00;101362.41;4983269;56;1136780;-77
2023/03/16 10:39:21;;;;;;;8.33;5.07;;;;;;;4.37;100.00;101363.52;4906802;58;1138779;-80
2023/03/16 10:44:46;;;;;;;18.70;5.37;;;;;;;4.43;100.00;101361.98;5013515;56;1137014;-79
2023/03/16 10:49:55;;;;;;;8.27;3.70;;;;;;;4.48;100.00;101366.56;5033244;56;1138797;-75
2023/03/16 10:55:18;;;;;;;5.10;1.70;;;;;;;4.61;100.00;101369.09;5024183;56;1136799;-74
2023/03/16 11:00:30;;;;;;;2.03;1.27;;;;;;;4.78;100.00;101352.25;5010963;56;1141666;-78
2023/03/16 11:05:41;;;;;;;4.77;3.00;;;;;;;5.24;100.00;101364.33;4944472;56;1136809;-75
2023/03/16 11:11:12;;;;;;;6.87;2.25;;;;;;;5.22;100.00;101366.16;4911713;58;1136902;-76
2023/03/16 11:16:41;;;;;;;14.28;6.78;;;;;;;5.28;100.00;101361.98;5043155;56;1136819;-79
2023/03/16 11:21:57;;;;;;;22.77;13.60;;;;;;;5.52;100.00;101360.06;4907247;58;1138876;-76
2023/03/16 11:27:08;;;;;;;9.43;4.23;;;;;;;5.51;100.00;101358.81;4974192;57;1140943;-77
2023/03/16 11:32:43;;;;;;;14.47;8.70;;;;;;;5.44;100.00;101357.39;4995733;56;1136766;-77
2023/03/16 11:38:15;;;;;;;40.52;20.17;;;;;;;5.56;100.00;101361.64;4929182;57;1138772;-77
2023/03/16 11:43:50;;;;;;;28.07;13.33;;;;;;;5.64;100.00;101366.11;5000769;57;1140828;-80
2023/03/16 11:49:21;;;;;;;8.67;3.23;;;;;;;5.60;100.00;101369.78;4947421;57;1140825;-76
2023/03/16 11:54:48;;;;;;;24.10;15.35;;;;;;;5.55;100.00;101370.43;4868171;57;1136673;-80
2023/03/16 12:00:34;;;;;;;35.97;17.07;;;;;;;5.69;100.00;101365.89;4907786;57;1140913;-79
2023/03/16 12:05:49;;;;;;;11.37;5.00;;;;;;;5.80;100.00;101360.19;4941377;56;1141052;-82
2023/03/16 12:11:24;;;;;;;7.57;2.80;;;;;;;5.88;100.00;101355.01;4958848;57;1138863;-77
2023/03/16 12:16:50;;;;;;;17.87;9.73;;;;;;;6.11;100.00;101361.01;4975107;57;1136939;-74
2023/03/16 12:22:09;;;;;;;53.47;30.33;;;;;;;6.08;100.00;101363.77;4978566;57;1138780;-77
2023/03/16 12:27:28;;;;;;;85.10;47.80;;;;;;;6.20;100.00;101367.14;5019199;56;1140839;-79
2023/03/16 12:32:44;;;;;;;2.93;1.63;;;;;;;6.25;100.00;101357.28;4951251;57;1140896;-82
2023/03/16 12:38:32;;;;;;;52.93;31.00;;;;;;;6.27;100.00;101371.17;4951883;57;1136649;-81
2023/03/16 12:43:58;;;;;;;112.42;61.92;;;;;;;6.37;100.00;101366.37;4934724;57;1141035;-77
2023/03/16 12:49:11;;;;;;;221.87;125.47;;;;;;;6.36;100.00;101366.83;4970534;56;1143015;-83
2023/03/16 12:54:24;;;;;;;96.30;49.70;;;;;;;6.52;100.00;101363.88;4951117;56;1145046;-80
2023/03/16 12:59:53;;;;;;;321.17;178.40;;;;;;;6.93;100.00;101364.96;4951714;57;1141010;-80
2023/03/16 13:05:02;;;;;;;124.70;63.93;;;;;;;7.33;98.12;101360.72;4950885;57;1145100;-77
2023/03/16 13:10:13;;;;;;;96.00;50.53;;;;;;;7.46;95.88;101367.55;4914548;58;1140829;-79
2023/03/16 13:15:28;;;;;;;60.30;34.90;;;;;;;7.19;94.43;101369.78;4884875;57;1138768;-77
2023/03/16 13:20:57;;;;;;;90.83;46.77;;;;;;;6.96;95.03;101372.24;4955724;57;1138787;-76
2023/03/16 13:26:39;;;;;;;29.77;18.70;;;;;;;7.03;94.42;101374.95;4923441;57;1138902;-79
2023/03/16 13:31:52;;;;;;;28.40;14.80;;;;;;;7.36;93.64;101368.93;4957565;57;1138827;-78
2023/03/16 13:37:01;;;;;;;25.65;18.48;;;;;;;7.29;94.53;101377.62;4882585;58;1138937;-76
2023/03/16 13:42:19;;;;;;;3.93;3.60;;;;;;;7.50;92.22;101374.34;4994996;57;1138863;-76
2023/03/16 13:47:45;;;;;;;5.75;2.10;;;;;;;7.55;77.23;101386.81;4974626;57;1134645;-82
2023/03/16 13:52:58;;;;;;;21.33;10.27;;;;;;;7.51;75.25;101379.14;4949353;57;1134644;-79
2023/03/16 13:58:08;;;;;;;66.30;30.50;;;;;;;7.67;75.29;101382.69;4999015;57;1139028;-80
2023/03/16 14:03:20;;;;;;;6.97;3.77;;;;;;;8.02;80.13;101376.90;4949028;58;1139022;-77
2023/03/16 14:08:28;;;;;;;5.78;1.95;;;;;;;8.15;82.21;101381.04;4978371;57;1134775;-80
2023/03/16 14:13:38;;;;;;;6.92;1.45;;;;;;;8.22;79.01;101386.37;4931645;57;1134782;-77
2023/03/16 14:18:47;;;;;;;21.33;9.98;;;;;;;8.22;78.36;101387.23;4968302;57;1134500;-84
2023/03/16 14:24:01;;;;;;;32.77;22.73;;;;;;;8.38;77.56;101383.33;4913020;58;1136667;-74
2023/03/16 14:29:29;;;;;;;3.00;2.43;;;;;;;8.42;75.06;101382.20;4917543;58;1138713;-73
2023/03/16 14:34:39;;;;;;;5.00;2.17;;;;;;;8.60;80.22;101381.66;4900696;57;1141727;-81
2023/03/16 14:39:48;;;;;;;22.58;9.75;;;;;;;8.69;78.66;101368.83;5001067;56;1134759;-82
2023/03/16 14:44:54;;;;;;;26.67;12.20;;;;;;;8.73;77.00;101366.84;4903901;58;1136737;-80
2023/03/16 14:50:05;;;;;;;19.70;7.20;;;;;;;8.73;77.00;101366.84;4921626;58;1138850;-82
2023/03/16 14:55:18;;;;;;;4.27;2.37;;;;;;;8.72;77.86;101377.02;5025867;57;1136921;-86
2023/03/16 15:00:24;;;;;;;;;;;;;;;8.73;76.71;101371.66;4971947;57;1134596;-87
2023/03/16 15:05:36;;;;;;;4.87;3.03;;;;;;;8.79;77.09;101366.05;4963069;57;971858;-84
2023/03/16 15:10:43;;;;;;;8.93;5.28;;;;;;;8.88;78.00;101366.45;4949260;57;1132681;-76
2023/03/16 15:15:48;;;;;;;2.58;2.22;;;;;;;8.91;75.32;101368.92;5002041;56;1134743;-86
2023/03/16 15:20:55;;;;;;;17.90;9.93;;;;;;;8.89;67.89;101368.16;5013784;56;1134672;-84
2023/03/16 15:26:01;;;;;;;12.03;6.10;;;;;;;8.76;67.45;101371.95;4988325;56;1136672;-80
2023/03/16 15:31:09;;;;;;;13.00;6.67;;;;;;;8.79;72.33;101366.52;5018139;56;1136725;-77
2023/03/16 15:36:21;;;;;;;6.40;3.90;;;;;;;8.81;73.58;101373.41;5023057;56;1136715;-80
2023/03/16 15:41:27;;;;;;;10.80;6.57;;;;;;;8.83;72.21;101377.28;5068342;55;1134627;-81
2023/03/16 15:46:33;;;;;;;7.33;4.63;;;;;;;8.83;67.47;101373.80;5038892;56;1136810;-74
2023/03/16 15:51:39;;;;;;;18.17;9.20;;;;;;;8.74;68.62;101377.78;5069478;56;1134612;-80
2023/03/16 15:56:45;;;;;;;6.67;4.00;;;;;;;8.68;69.31;101370.23;4999876;56;1136792;-81
2023/03/16 16:01:52;;;;;;;10.40;3.98;;;;;;;8.66;68.90;101374.28;5008079;56;1134769;-79
2023/03/16 16:07:00;;;;;;;13.73;7.13;;;;;;;8.90;66.70;101381.73;5036009;56;1136693;-76
2023/03/16 16:12:10;;;;;;;29.47;10.40;;;;;;;9.37;70.12;101377.66;5065707;56;1137005;-78
2023/03/16 16:17:24;;;;;;;25.03;10.83;;;;;;;9.86;68.13;101374.26;5081585;57;1138969;-77
2023/03/16 16:22:24;;;;;;;9.80;4.70;;;;;;;9.48;68.42;101380.04;5056223;57;1139037;-79
2023/03/16 16:27:30;;;;;;;8.17;3.87;;;;;;;9.19;68.54;101391.45;5078443;57;1134719;-82
2023/03/16 16:32:36;;;;;;;7.97;3.83;;;;;;;8.83;68.92;101397.06;5091900;57;1134651;-76
2023/03/16 16:37:43;;;;;;;10.77;4.97;;;;;;;8.63;70.89;101398.17;4991875;57;1134563;-77
2023/03/16 16:42:52;;;;;;;29.10;8.37;;;;;;;8.53;72.16;101396.98;4995656;56;1136598;-83
2023/03/16 16:47:59;;;;;;;14.58;3.70;;;;;;;8.37;73.53;101402.25;5009677;57;1136747;-78
2023/03/16 16:53:09;;;;;;;6.60;3.00;;;;;;;8.18;74.20;101402.81;5034727;56;1137127;-84
2023/03/16 16:58:15;;;;;;;12.07;2.85;;;;;;;7.96;75.01;101407.50;5028170;56;1134573;-78
2023/03/16 17:03:27;;;;;;;9.10;4.23;;;;;;;7.72;76.10;101406.55;5062166;57;1136788;-81
2023/03/16 17:08:33;;;;;;;11.03;4.97;;;;;;;7.54;76.96;101410.58;5026905;57;1134719;-76
2023/03/16 17:13:41;;;;;;;20.67;6.33;;;;;;;7.27;77.67;101417.63;4979048;56;1136750;-80
2023/03/16 17:18:48;;;;;;;33.17;9.53;;;;;;;7.12;78.86;101425.41;4992166;56;1136640;-81
2023/03/16 17:23:56;;;;;;;28.67;12.03;;;;;;;6.99;79.79;101429.11;4958653;57;1136857;-79
2023/03/16 17:29:06;;;;;;;26.50;8.97;;;;;;;6.77;80.30;101434.98;4900114;57;1138905;-79
2023/03/16 17:34:19;;;;;;;108.17;40.38;;;;;;;6.65;80.88;101442.99;4897522;57;1136913;-84
2023/03/16 17:51:17;;;;;;;142.07;58.60;;;;;;;6.38;81.33;101437.70;5127073;56;46250;-77
2023/03/16 17:56:27;;;;;;;82.07;36.87;;;;;;;5.94;82.76;101445.33;5018190;57;1136700;-76
2023/03/16 18:01:34;;;;;;;96.83;35.63;;;;;;;5.75;83.29;101439.12;5011781;57;1139168;-84
2023/03/16 18:06:45;;;;;;;40.33;18.00;;;;;;;4.98;84.74;101435.34;4910315;57;1138880;-82
2023/03/16 18:11:53;;;;;;;87.97;39.87;;;;;;;4.98;84.74;101435.34;4885735;58;1138977;-80
2023/03/16 18:16:59;;;;;;;333.13;134.07;;;;;;;4.85;85.47;101455.09;5027232;58;1139249;-77
2023/03/16 18:22:08;;;;;;;331.87;152.50;;;;;;;4.74;85.96;101453.31;5043276;58;1143165;-80
2023/03/16 18:27:14;;;;;;;152.37;67.10;;;;;;;4.69;86.27;101451.35;4920280;58;1143355;-83
2023/03/16 18:32:26;;;;;;;80.33;35.27;;;;;;;4.57;86.23;101452.23;4897934;58;1141163;-77
2023/03/16 18:37:32;;;;;;;73.37;28.43;;;;;;;4.53;86.76;101451.08;4952914;57;1138896;-76
2023/03/16 18:42:38;;;;;;;145.17;56.17;;;;;;;4.41;87.16;101455.47;4926532;57;1139237;-76
2023/03/16 18:47:51;;;;;;;146.47;61.10;;;;;;;4.27;87.59;101461.67;4864400;58;1247660;-79
2023/03/16 18:52:58;;;;;;;138.53;56.77;;;;;;;4.24;88.20;101458.70;4939142;57;1140898;-77
2023/03/16 18:58:09;;;;;;;118.02;50.98;;;;;;;4.23;88.47;101463.55;4935317;57;1141349;-78
2023/03/16 19:03:27;;;;;;;161.20;73.77;;;;;;;4.14;88.74;101469.95;4945660;57;1140987;-78
2023/03/16 19:08:33;;;;;;;149.93;64.00;;;;;;;4.11;89.07;101471.84;4923545;57;1140834;-78
2023/03/16 19:13:39;;;;;;;166.37;73.47;;;;;;;4.13;89.64;101476.09;4914103;56;1140968;-78
2023/03/16 19:18:45;;;;;;;203.93;86.63;;;;;;;4.07;89.72;101465.00;4932478;57;1141041;-76
2023/03/16 19:24:04;;;;;;;172.80;78.13;;;;;;;4.07;90.06;101476.78;4917130;57;1140987;-81
2023/03/16 19:29:13;;;;;;;230.33;95.77;;;;;;;4.01;90.41;101479.15;4972154;56;1140981;-82
2023/03/16 19:34:19;;;;;;;277.80;99.77;;;;;;;3.84;90.06;101492.81;5066799;56;1140874;-81
2023/03/16 19:39:25;;;;;;;296.83;114.10;;;;;;;3.77;89.90;101497.02;5005891;56;1141091;-74
2023/03/16 19:44:32;;;;;;;262.97;96.37;;;;;;;3.66;90.10;101497.39;5066248;56;1143068;-78
2023/03/16 19:49:38;;;;;;;152.00;56.33;;;;;;;3.45;90.40;101491.09;5093887;56;1141136;-73
2023/03/16 19:54:43;;;;;;;140.13;48.23;;;;;;;3.30;91.09;101482.89;5095389;56;1141033;-78
2023/03/16 19:59:56;;;;;;;161.80;60.67;;;;;;;3.12;91.51;101470.80;5095019;56;1141151;-77
2023/03/16 20:05:03;;;;;;;112.08;44.23;;;;;;;3.00;91.86;101472.95;5092996;56;1141025;-77
2023/03/16 20:10:17;;;;;;;70.57;25.57;;;;;;;2.91;92.35;101483.67;5031352;55;1140972;-76
2023/03/16 20:15:27;;;;;;;292.00;109.60;;;;;;;2.89;93.14;101488.11;5012369;57;1138801;-80
2023/03/16 20:20:34;;;;;;;131.33;53.70;;;;;;;2.86;93.34;101483.83;5015710;55;1143007;-78
2023/03/16 20:25:40;;;;;;;178.00;65.83;;;;;;;2.73;92.95;101466.82;5057864;56;1140895;-75
2023/03/16 20:30:46;;;;;;;184.03;74.83;;;;;;;2.59;93.22;101454.63;4979242;56;1235475;-77
2023/03/16 20:35:54;;;;;;;170.47;69.77;;;;;;;2.58;94.43;101451.61;5047680;56;1150487;-79
2023/03/16 20:41:01;;;;;;;203.00;80.28;;;;;;;2.50;94.44;101443.98;5047123;56;1141082;-76
2023/03/16 20:46:07;;;;;;;371.83;134.80;;;;;;;2.51;94.99;101446.15;5041899;56;1140907;-75
2023/03/16 20:51:15;;;;;;;294.03;105.33;;;;;;;2.54;95.52;101448.67;5038432;56;1142960;-75
2023/03/16 20:56:27;;;;;;;189.97;68.20;;;;;;;2.45;95.43;101445.41;4974792;57;1143221;-76
2023/03/16 21:01:33;;;;;;;212.37;69.20;;;;;;;2.44;96.02;101442.88;5068088;56;1140958;-70
2023/03/16 21:06:39;;;;;;;145.53;46.33;;;;;;;2.43;96.71;101438.11;5033154;56;1141016;-75
2023/03/16 21:11:45;;;;;;;111.13;32.37;;;;;;;2.48;97.05;101437.95;5063436;56;1141118;-68
2023/03/16 21:16:53;;;;;;;212.02;68.75;;;;;;;2.48;97.62;101452.31;5037094;56;1165521;-75
2023/03/16 21:22:00;;;;;;;129.23;43.20;;;;;;;2.45;97.91;101445.41;5058667;56;1140895;-69
2023/03/16 21:27:06;;;;;;;104.03;38.93;;;;;;;2.53;98.31;101447.81;5096284;56;1140861;-65
2023/03/16 21:32:18;;;;;;;142.77;53.63;;;;;;;2.54;98.56;101448.23;5107254;56;1140972;-70
2023/03/16 21:37:24;;;;;;;91.33;32.73;;;;;;;2.53;98.53;101452.19;5115657;56;1141150;-70
2023/03/16 21:42:30;;;;;;;86.60;35.30;;;;;;;2.52;98.52;101439.58;5062806;56;1138848;-76
2023/03/16 21:47:37;;;;;;;100.60;37.60;;;;;;;2.54;98.72;101433.86;5051012;56;1138937;-69
2023/03/16 21:52:43;;;;;;;67.43;26.77;;;;;;;2.44;98.88;101428.52;5072736;56;1141121;-70
2023/03/16 21:57:50;;;;;;;78.80;27.77;;;;;;;2.49;99.58;101438.36;5086084;56;1139021;-71
2023/03/16 22:02:59;;;;;;;91.97;37.13;;;;;;;2.58;100.00;101439.41;5048073;56;1139051;-67
2023/03/16 22:08:23;;;;;;;78.23;29.70;;;;;;;2.57;99.43;101446.84;5131653;56;1140973;-68
2023/03/16 22:13:32;;;;;;;64.50;28.20;;;;;;;2.58;99.32;101445.08;5126728;56;1138976;-71
2023/03/16 22:18:37;;;;;;;65.97;25.70;;;;;;;2.58;99.22;101460.30;5126677;56;1138825;-71
2023/03/16 22:23:44;;;;;;;54.20;22.00;;;;;;;2.60;99.39;101461.08;5147079;56;1138743;-71
2023/03/16 22:28:51;;;;;;;60.63;25.37;;;;;;;2.67;99.48;101469.61;5127207;56;1138785;-67
2023/03/16 22:33:56;;;;;;;60.52;24.94;;;;;;;2.70;99.56;101476.91;5100368;56;1139030;-71
2023/03/16 22:39:07;;;;;;;58.30;24.50;;;;;;;2.73;99.57;101470.29;5101882;56;1139010;-75
2023/03/16 22:44:19;;;;;;;65.47;28.40;;;;;;;2.73;99.50;101473.35;5101197;56;1138903;-71
2023/03/16 22:49:28;;;;;;;67.70;26.27;;;;;;;2.65;99.60;101470.95;5127436;55;1139076;-75
2023/03/16 22:54:34;;;;;;;43.80;18.53;;;;;;;2.55;99.16;101469.52;5147386;56;1138790;-69
2023/03/16 22:59:40;;;;;;;51.67;19.57;;;;;;;2.47;99.36;101451.45;5101744;56;1138902;-66
2023/03/16 23:04:46;;;;;;;48.63;20.13;;;;;;;2.42;99.50;101453.81;5096868;56;1139112;-73
2023/03/16 23:09:54;;;;;;;44.30;15.53;;;;;;;2.34;99.57;101452.71;5097136;56;1138933;-68
2023/03/16 23:15:00;;;;;;;34.95;13.90;;;;;;;2.21;99.77;101447.44;5097050;56;1139045;-72
2023/03/16 23:20:14;;;;;;;25.77;11.97;;;;;;;2.20;100.00;101454.01;5050397;56;1138931;-73
2023/03/16 23:25:22;;;;;;;33.67;13.47;;;;;;;2.17;100.00;101454.08;5093833;56;1141008;-74
2023/03/16 23:30:28;;;;;;;35.93;13.13;;;;;;;2.20;100.00;101463.14;5116662;56;1140814;-73